Hlavní strana
METAR-TAF:

METAR-TAF

Letiště :

Ohrid, Makedonie

zeměpisná šířka: 41-07N, zeměpisná délka: 020-48E, výška: 760 m

Aktuální stav počasí

Zpráva byla vytvořena před 5 hodinami a 52 minutami, v 19:00 UTC
Severoseverovýchodní vítr 2 kt
Teplota 10°C
Vlhkost vzduchu 46%
Tlak 1024 hPa
Viditelnost 10 km a více
Polojasno ve výšce 4000 ft

METAR: LWOH 191900Z 02002KT 9999 SCT040 10/M01 Q1024

Čas: 02:52 (00:52 UTC)

Předpověď počasí

Zpráva byla vytvořena před 1 hodinou a 22 minutami, v 23:30 UTC
Předpověď platná od 20 v 00 UTC do 20 v 24 UTC
Severoseverozápadní vítr 6 kt
Viditelnost 10 km a více
Skoro jasno ve výšce 4000 ft
Polojasno ve výšce 8000 ft

TAF: LWOH 192330Z 2000/2024 34006KT 9999 FEW040 SCT080

Stav a předpovědi počasí z více než 4 000 letišť (zprávy METAR a TAF).

Červené a žluté tečky na mapě představují dostupné meteorologické stanice.

Když kurzor umístíte na tečku, zobrazí se název stanice.

Pak kliknutím zobrazíte stav a předpověď počasí.

Chcete-li změnit mapu, kliknutím na zelené tlačítko se znaménkem +mapu přiblížíte, kliknutím na zelené tlačítko se znaménkem – mapu oddálíte a kliknutím na zelené šipky přejdete na sousední mapy.


METAR-TAF: